sensor_id;sensor_type;location;lat;lon;timestamp;P1;durP1;ratioP1;P2;durP2;ratioP2
61960;SDS011;47923;42.506;24.192;2023-08-20T00:00:16;9.68;;;6.93;;
61960;SDS011;47923;42.506;24.192;2023-08-20T00:02:43;10.68;;;6.40;;
61960;SDS011;47923;42.506;24.192;2023-08-20T00:05:11;10.63;;;7.57;;
61960;SDS011;47923;42.506;24.192;2023-08-20T00:07:37;11.98;;;7.53;;
61960;SDS011;47923;42.506;24.192;2023-08-20T00:10:03;10.20;;;7.10;;
61960;SDS011;47923;42.506;24.192;2023-08-20T00:12:29;9.98;;;6.53;;
61960;SDS011;47923;42.506;24.192;2023-08-20T00:14:56;10.48;;;7.05;;
61960;SDS011;47923;42.506;24.192;2023-08-20T00:20:00;10.60;;;7.10;;
61960;SDS011;47923;42.506;24.192;2023-08-20T00:22:25;9.43;;;6.88;;
61960;SDS011;47923;42.506;24.192;2023-08-20T00:24:52;11.10;;;7.05;;
61960;SDS011;47923;42.506;24.192;2023-08-20T00:27:18;14.65;;;7.28;;
61960;SDS011;47923;42.506;24.192;2023-08-20T00:29:44;11.40;;;7.13;;
61960;SDS011;47923;42.506;24.192;2023-08-20T00:32:09;9.95;;;6.82;;
61960;SDS011;47923;42.506;24.192;2023-08-20T00:34:35;10.50;;;7.40;;
61960;SDS011;47923;42.506;24.192;2023-08-20T00:37:01;11.32;;;7.22;;
61960;SDS011;47923;42.506;24.192;2023-08-20T00:39:27;11.38;;;7.10;;
61960;SDS011;47923;42.506;24.192;2023-08-20T00:41:53;9.70;;;6.75;;
61960;SDS011;47923;42.506;24.192;2023-08-20T00:44:19;11.13;;;7.50;;
61960;SDS011;47923;42.506;24.192;2023-08-20T00:46:44;10.90;;;7.10;;
61960;SDS011;47923;42.506;24.192;2023-08-20T00:49:10;10.95;;;7.53;;
61960;SDS011;47923;42.506;24.192;2023-08-20T00:51:36;11.88;;;7.40;;
61960;SDS011;47923;42.506;24.192;2023-08-20T00:54:02;13.13;;;7.40;;
61960;SDS011;47923;42.506;24.192;2023-08-20T00:56:28;10.35;;;7.05;;
61960;SDS011;47923;42.506;24.192;2023-08-20T00:58:54;9.82;;;7.18;;
61960;SDS011;47923;42.506;24.192;2023-08-20T01:01:21;11.35;;;7.50;;
61960;SDS011;47923;42.506;24.192;2023-08-20T01:03:47;9.98;;;7.57;;
61960;SDS011;47923;42.506;24.192;2023-08-20T01:06:23;9.65;;;6.97;;
61960;SDS011;47923;42.506;24.192;2023-08-20T01:12:14;10.90;;;7.32;;
61960;SDS011;47923;42.506;24.192;2023-08-20T01:14:41;10.68;;;7.07;;
61960;SDS011;47923;42.506;24.192;2023-08-20T01:17:07;10.43;;;6.35;;
61960;SDS011;47923;42.506;24.192;2023-08-20T01:19:32;9.93;;;6.53;;
61960;SDS011;47923;42.506;24.192;2023-08-20T01:24:35;10.50;;;6.90;;
61960;SDS011;47923;42.506;24.192;2023-08-20T01:27:17;11.02;;;7.72;;
61960;SDS011;47923;42.506;24.192;2023-08-20T01:29:51;10.48;;;7.80;;
61960;SDS011;47923;42.506;24.192;2023-08-20T01:32:18;9.52;;;7.75;;
61960;SDS011;47923;42.506;24.192;2023-08-20T01:34:45;9.48;;;6.75;;
61960;SDS011;47923;42.506;24.192;2023-08-20T01:37:11;10.60;;;7.10;;
61960;SDS011;47923;42.506;24.192;2023-08-20T01:39:36;9.93;;;7.45;;
61960;SDS011;47923;42.506;24.192;2023-08-20T01:42:01;11.15;;;7.05;;
61960;SDS011;47923;42.506;24.192;2023-08-20T01:44:27;9.80;;;6.60;;
61960;SDS011;47923;42.506;24.192;2023-08-20T01:46:52;10.32;;;7.75;;
61960;SDS011;47923;42.506;24.192;2023-08-20T01:49:18;10.75;;;7.47;;
61960;SDS011;47923;42.506;24.192;2023-08-20T01:51:43;10.82;;;8.02;;
61960;SDS011;47923;42.506;24.192;2023-08-20T01:54:09;11.38;;;7.45;;
61960;SDS011;47923;42.506;24.192;2023-08-20T01:56:34;9.98;;;7.43;;
61960;SDS011;47923;42.506;24.192;2023-08-20T01:58:59;11.57;;;7.63;;
61960;SDS011;47923;42.506;24.192;2023-08-20T02:01:25;12.85;;;7.68;;
61960;SDS011;47923;42.506;24.192;2023-08-20T02:03:50;11.55;;;8.05;;
61960;SDS011;47923;42.506;24.192;2023-08-20T02:06:16;9.25;;;7.38;;
61960;SDS011;47923;42.506;24.192;2023-08-20T02:08:41;12.27;;;7.85;;
61960;SDS011;47923;42.506;24.192;2023-08-20T02:11:07;9.40;;;7.43;;
61960;SDS011;47923;42.506;24.192;2023-08-20T02:13:32;12.02;;;7.68;;
61960;SDS011;47923;42.506;24.192;2023-08-20T02:16:01;9.93;;;7.38;;
61960;SDS011;47923;42.506;24.192;2023-08-20T02:18:28;13.68;;;8.57;;
61960;SDS011;47923;42.506;24.192;2023-08-20T02:20:54;10.10;;;7.32;;
61960;SDS011;47923;42.506;24.192;2023-08-20T02:23:19;14.05;;;7.88;;
61960;SDS011;47923;42.506;24.192;2023-08-20T02:25:45;13.35;;;8.30;;
61960;SDS011;47923;42.506;24.192;2023-08-20T02:28:11;13.07;;;8.52;;
61960;SDS011;47923;42.506;24.192;2023-08-20T02:30:44;10.43;;;8.15;;
61960;SDS011;47923;42.506;24.192;2023-08-20T02:33:10;11.02;;;7.30;;
61960;SDS011;47923;42.506;24.192;2023-08-20T02:35:36;10.70;;;7.70;;
61960;SDS011;47923;42.506;24.192;2023-08-20T02:38:02;12.60;;;8.30;;
61960;SDS011;47923;42.506;24.192;2023-08-20T02:40:28;12.50;;;8.25;;
61960;SDS011;47923;42.506;24.192;2023-08-20T02:42:53;9.90;;;7.65;;
61960;SDS011;47923;42.506;24.192;2023-08-20T02:45:19;11.00;;;8.00;;
61960;SDS011;47923;42.506;24.192;2023-08-20T02:47:44;10.27;;;7.63;;
61960;SDS011;47923;42.506;24.192;2023-08-20T02:50:10;11.73;;;7.90;;
61960;SDS011;47923;42.506;24.192;2023-08-20T02:52:35;11.38;;;8.80;;
61960;SDS011;47923;42.506;24.192;2023-08-20T02:55:01;10.30;;;7.32;;
61960;SDS011;47923;42.506;24.192;2023-08-20T02:57:26;9.75;;;7.47;;
61960;SDS011;47923;42.506;24.192;2023-08-20T02:59:51;13.20;;;8.32;;
61960;SDS011;47923;42.506;24.192;2023-08-20T03:02:17;10.35;;;7.28;;
61960;SDS011;47923;42.506;24.192;2023-08-20T03:04:42;11.52;;;8.68;;
61960;SDS011;47923;42.506;24.192;2023-08-20T03:07:08;9.95;;;7.40;;
61960;SDS011;47923;42.506;24.192;2023-08-20T03:09:34;11.45;;;8.02;;
61960;SDS011;47923;42.506;24.192;2023-08-20T03:11:59;12.80;;;8.13;;
61960;SDS011;47923;42.506;24.192;2023-08-20T03:14:24;11.38;;;8.00;;
61960;SDS011;47923;42.506;24.192;2023-08-20T03:16:50;11.10;;;7.63;;
61960;SDS011;47923;42.506;24.192;2023-08-20T03:19:15;9.52;;;7.43;;
61960;SDS011;47923;42.506;24.192;2023-08-20T03:21:41;10.43;;;7.95;;
61960;SDS011;47923;42.506;24.192;2023-08-20T03:24:07;11.88;;;8.52;;
61960;SDS011;47923;42.506;24.192;2023-08-20T03:26:33;10.40;;;7.65;;
61960;SDS011;47923;42.506;24.192;2023-08-20T03:28:58;10.32;;;8.13;;
61960;SDS011;47923;42.506;24.192;2023-08-20T03:31:24;12.10;;;8.38;;
61960;SDS011;47923;42.506;24.192;2023-08-20T03:33:49;11.00;;;7.60;;
61960;SDS011;47923;42.506;24.192;2023-08-20T03:36:15;9.48;;;7.30;;
61960;SDS011;47923;42.506;24.192;2023-08-20T03:38:40;11.20;;;7.10;;
61960;SDS011;47923;42.506;24.192;2023-08-20T03:41:06;10.38;;;7.00;;
61960;SDS011;47923;42.506;24.192;2023-08-20T03:43:31;10.13;;;7.28;;
61960;SDS011;47923;42.506;24.192;2023-08-20T03:45:57;10.75;;;7.40;;
61960;SDS011;47923;42.506;24.192;2023-08-20T03:48:22;8.70;;;6.72;;
61960;SDS011;47923;42.506;24.192;2023-08-20T03:50:47;11.85;;;8.52;;
61960;SDS011;47923;42.506;24.192;2023-08-20T03:53:13;11.50;;;9.00;;
61960;SDS011;47923;42.506;24.192;2023-08-20T03:55:39;12.13;;;9.35;;
61960;SDS011;47923;42.506;24.192;2023-08-20T03:58:04;10.60;;;7.63;;
61960;SDS011;47923;42.506;24.192;2023-08-20T04:00:30;11.30;;;7.75;;
61960;SDS011;47923;42.506;24.192;2023-08-20T04:02:55;17.33;;;8.75;;
61960;SDS011;47923;42.506;24.192;2023-08-20T04:05:20;11.10;;;8.32;;
61960;SDS011;47923;42.506;24.192;2023-08-20T04:07:46;10.90;;;7.72;;
61960;SDS011;47923;42.506;24.192;2023-08-20T04:10:11;13.75;;;8.80;;
61960;SDS011;47923;42.506;24.192;2023-08-20T04:12:37;11.27;;;7.22;;
61960;SDS011;47923;42.506;24.192;2023-08-20T04:15:02;10.27;;;7.63;;
61960;SDS011;47923;42.506;24.192;2023-08-20T04:17:28;9.60;;;7.05;;
61960;SDS011;47923;42.506;24.192;2023-08-20T04:19:54;9.20;;;7.00;;
61960;SDS011;47923;42.506;24.192;2023-08-20T04:22:19;10.45;;;6.93;;
61960;SDS011;47923;42.506;24.192;2023-08-20T04:24:44;8.55;;;6.15;;
61960;SDS011;47923;42.506;24.192;2023-08-20T04:27:10;11.60;;;7.35;;
61960;SDS011;47923;42.506;24.192;2023-08-20T04:29:35;9.98;;;7.00;;
61960;SDS011;47923;42.506;24.192;2023-08-20T04:32:01;9.05;;;6.38;;
61960;SDS011;47923;42.506;24.192;2023-08-20T04:34:26;10.77;;;7.03;;
61960;SDS011;47923;42.506;24.192;2023-08-20T04:36:52;9.63;;;7.10;;
61960;SDS011;47923;42.506;24.192;2023-08-20T04:39:18;10.38;;;7.90;;
61960;SDS011;47923;42.506;24.192;2023-08-20T04:41:43;10.60;;;7.25;;
61960;SDS011;47923;42.506;24.192;2023-08-20T04:44:09;11.63;;;8.07;;
61960;SDS011;47923;42.506;24.192;2023-08-20T04:46:35;11.65;;;7.28;;
61960;SDS011;47923;42.506;24.192;2023-08-20T04:49:00;12.63;;;7.45;;
61960;SDS011;47923;42.506;24.192;2023-08-20T04:51:25;9.77;;;7.20;;
61960;SDS011;47923;42.506;24.192;2023-08-20T04:53:51;11.10;;;6.70;;
61960;SDS011;47923;42.506;24.192;2023-08-20T04:56:16;10.95;;;7.20;;
61960;SDS011;47923;42.506;24.192;2023-08-20T04:58:42;10.85;;;7.15;;
61960;SDS011;47923;42.506;24.192;2023-08-20T05:01:07;9.13;;;6.88;;
61960;SDS011;47923;42.506;24.192;2023-08-20T05:03:34;10.35;;;6.82;;
61960;SDS011;47923;42.506;24.192;2023-08-20T05:05:59;10.05;;;6.43;;
61960;SDS011;47923;42.506;24.192;2023-08-20T05:08:25;12.85;;;6.57;;
61960;SDS011;47923;42.506;24.192;2023-08-20T05:10:50;15.27;;;7.43;;
61960;SDS011;47923;42.506;24.192;2023-08-20T05:13:16;10.50;;;7.78;;
61960;SDS011;47923;42.506;24.192;2023-08-20T05:15:42;15.93;;;8.30;;
61960;SDS011;47923;42.506;24.192;2023-08-20T05:18:08;12.00;;;8.02;;
61960;SDS011;47923;42.506;24.192;2023-08-20T05:20:33;11.18;;;7.03;;
61960;SDS011;47923;42.506;24.192;2023-08-20T05:22:59;13.00;;;7.40;;
61960;SDS011;47923;42.506;24.192;2023-08-20T05:25:24;11.73;;;7.43;;
61960;SDS011;47923;42.506;24.192;2023-08-20T05:27:50;14.15;;;7.75;;
61960;SDS011;47923;42.506;24.192;2023-08-20T05:30:15;11.25;;;7.03;;
61960;SDS011;47923;42.506;24.192;2023-08-20T05:32:41;10.50;;;7.15;;
61960;SDS011;47923;42.506;24.192;2023-08-20T05:35:06;10.10;;;6.40;;
61960;SDS011;47923;42.506;24.192;2023-08-20T05:37:32;10.18;;;6.95;;
61960;SDS011;47923;42.506;24.192;2023-08-20T05:39:57;11.07;;;6.63;;
61960;SDS011;47923;42.506;24.192;2023-08-20T05:42:23;10.05;;;6.15;;
61960;SDS011;47923;42.506;24.192;2023-08-20T05:44:48;12.88;;;7.15;;
61960;SDS011;47923;42.506;24.192;2023-08-20T05:47:14;11.52;;;6.28;;
61960;SDS011;47923;42.506;24.192;2023-08-20T05:49:39;12.57;;;7.05;;
61960;SDS011;47923;42.506;24.192;2023-08-20T05:52:04;10.20;;;7.10;;
61960;SDS011;47923;42.506;24.192;2023-08-20T05:54:30;14.45;;;7.50;;
61960;SDS011;47923;42.506;24.192;2023-08-20T05:56:57;12.95;;;8.35;;
61960;SDS011;47923;42.506;24.192;2023-08-20T05:59:23;20.23;;;7.78;;
61960;SDS011;47923;42.506;24.192;2023-08-20T06:01:48;12.27;;;7.93;;
61960;SDS011;47923;42.506;24.192;2023-08-20T06:04:14;11.38;;;7.40;;
61960;SDS011;47923;42.506;24.192;2023-08-20T06:06:39;13.18;;;7.63;;
61960;SDS011;47923;42.506;24.192;2023-08-20T06:09:05;11.30;;;6.75;;
61960;SDS011;47923;42.506;24.192;2023-08-20T06:11:31;11.98;;;7.40;;
61960;SDS011;47923;42.506;24.192;2023-08-20T06:13:56;12.43;;;7.70;;
61960;SDS011;47923;42.506;24.192;2023-08-20T06:16:22;12.32;;;7.10;;
61960;SDS011;47923;42.506;24.192;2023-08-20T06:18:47;11.75;;;7.40;;
61960;SDS011;47923;42.506;24.192;2023-08-20T06:21:12;10.55;;;6.55;;
61960;SDS011;47923;42.506;24.192;2023-08-20T06:23:38;10.40;;;6.35;;
61960;SDS011;47923;42.506;24.192;2023-08-20T06:26:04;12.77;;;6.40;;
61960;SDS011;47923;42.506;24.192;2023-08-20T06:28:29;11.63;;;7.32;;
61960;SDS011;47923;42.506;24.192;2023-08-20T06:30:55;11.25;;;6.95;;
61960;SDS011;47923;42.506;24.192;2023-08-20T06:33:21;10.35;;;7.00;;
61960;SDS011;47923;42.506;24.192;2023-08-20T06:35:46;15.65;;;7.07;;
61960;SDS011;47923;42.506;24.192;2023-08-20T06:38:12;9.93;;;7.00;;
61960;SDS011;47923;42.506;24.192;2023-08-20T06:40:37;9.82;;;6.43;;
61960;SDS011;47923;42.506;24.192;2023-08-20T06:43:03;10.35;;;6.07;;
61960;SDS011;47923;42.506;24.192;2023-08-20T06:45:28;9.50;;;5.82;;
61960;SDS011;47923;42.506;24.192;2023-08-20T06:47:54;9.75;;;5.25;;
61960;SDS011;47923;42.506;24.192;2023-08-20T06:50:20;12.93;;;5.03;;
61960;SDS011;47923;42.506;24.192;2023-08-20T06:52:45;10.07;;;5.15;;
61960;SDS011;47923;42.506;24.192;2023-08-20T06:55:10;8.48;;;5.00;;
61960;SDS011;47923;42.506;24.192;2023-08-20T06:57:36;7.63;;;4.50;;
61960;SDS011;47923;42.506;24.192;2023-08-20T07:00:01;8.63;;;4.32;;
61960;SDS011;47923;42.506;24.192;2023-08-20T07:02:29;19.77;;;5.38;;
61960;SDS011;47923;42.506;24.192;2023-08-20T07:04:55;6.72;;;3.80;;
61960;SDS011;47923;42.506;24.192;2023-08-20T07:07:20;6.40;;;3.60;;
61960;SDS011;47923;42.506;24.192;2023-08-20T07:09:46;8.20;;;4.00;;
61960;SDS011;47923;42.506;24.192;2023-08-20T07:12:11;7.85;;;3.83;;
61960;SDS011;47923;42.506;24.192;2023-08-20T07:14:36;6.88;;;3.90;;
61960;SDS011;47923;42.506;24.192;2023-08-20T07:17:02;8.35;;;3.85;;
61960;SDS011;47923;42.506;24.192;2023-08-20T07:19:28;6.50;;;3.58;;
61960;SDS011;47923;42.506;24.192;2023-08-20T07:21:53;6.75;;;3.63;;
61960;SDS011;47923;42.506;24.192;2023-08-20T07:24:19;8.27;;;4.18;;
61960;SDS011;47923;42.506;24.192;2023-08-20T07:26:50;8.43;;;6.13;;
61960;SDS011;47923;42.506;24.192;2023-08-20T07:29:16;9.75;;;4.45;;
61960;SDS011;47923;42.506;24.192;2023-08-20T07:31:41;9.13;;;4.05;;
61960;SDS011;47923;42.506;24.192;2023-08-20T07:34:06;6.47;;;4.38;;
61960;SDS011;47923;42.506;24.192;2023-08-20T07:36:32;8.07;;;4.13;;
61960;SDS011;47923;42.506;24.192;2023-08-20T07:38:59;10.10;;;4.38;;
61960;SDS011;47923;42.506;24.192;2023-08-20T07:41:25;13.05;;;4.00;;
61960;SDS011;47923;42.506;24.192;2023-08-20T07:43:51;5.90;;;3.05;;
61960;SDS011;47923;42.506;24.192;2023-08-20T07:46:17;5.10;;;3.33;;
61960;SDS011;47923;42.506;24.192;2023-08-20T07:48:43;7.07;;;3.10;;
61960;SDS011;47923;42.506;24.192;2023-08-20T07:51:08;6.03;;;2.92;;
61960;SDS011;47923;42.506;24.192;2023-08-20T07:53:34;5.82;;;3.20;;
61960;SDS011;47923;42.506;24.192;2023-08-20T07:56:00;7.93;;;3.10;;
61960;SDS011;47923;42.506;24.192;2023-08-20T07:58:26;5.88;;;2.90;;
61960;SDS011;47923;42.506;24.192;2023-08-20T08:00:53;9.40;;;3.47;;
61960;SDS011;47923;42.506;24.192;2023-08-20T08:03:18;5.43;;;3.00;;
61960;SDS011;47923;42.506;24.192;2023-08-20T08:05:47;5.65;;;3.17;;
61960;SDS011;47923;42.506;24.192;2023-08-20T08:08:14;5.30;;;2.92;;
61960;SDS011;47923;42.506;24.192;2023-08-20T08:10:41;7.07;;;3.50;;
61960;SDS011;47923;42.506;24.192;2023-08-20T08:13:09;4.05;;;3.05;;
61960;SDS011;47923;42.506;24.192;2023-08-20T08:15:35;4.45;;;2.90;;
61960;SDS011;47923;42.506;24.192;2023-08-20T08:18:00;5.55;;;3.10;;
61960;SDS011;47923;42.506;24.192;2023-08-20T08:20:26;5.38;;;3.17;;
61960;SDS011;47923;42.506;24.192;2023-08-20T08:22:51;5.28;;;3.20;;
61960;SDS011;47923;42.506;24.192;2023-08-20T08:25:17;7.63;;;3.30;;
61960;SDS011;47923;42.506;24.192;2023-08-20T08:27:42;6.90;;;3.75;;
61960;SDS011;47923;42.506;24.192;2023-08-20T08:30:08;6.28;;;3.15;;
61960;SDS011;47923;42.506;24.192;2023-08-20T08:32:33;10.52;;;4.32;;
61960;SDS011;47923;42.506;24.192;2023-08-20T08:34:59;5.32;;;3.22;;
61960;SDS011;47923;42.506;24.192;2023-08-20T08:37:24;5.22;;;3.13;;
61960;SDS011;47923;42.506;24.192;2023-08-20T08:39:50;8.73;;;2.90;;
61960;SDS011;47923;42.506;24.192;2023-08-20T08:42:15;5.93;;;3.08;;
61960;SDS011;47923;42.506;24.192;2023-08-20T08:44:44;5.55;;;2.90;;
61960;SDS011;47923;42.506;24.192;2023-08-20T08:47:10;8.07;;;3.58;;
61960;SDS011;47923;42.506;24.192;2023-08-20T08:49:36;5.93;;;3.10;;
61960;SDS011;47923;42.506;24.192;2023-08-20T08:52:03;5.60;;;2.83;;
61960;SDS011;47923;42.506;24.192;2023-08-20T08:54:29;6.20;;;3.08;;
61960;SDS011;47923;42.506;24.192;2023-08-20T08:56:57;3.67;;;2.65;;
61960;SDS011;47923;42.506;24.192;2023-08-20T08:59:22;4.75;;;3.28;;
61960;SDS011;47923;42.506;24.192;2023-08-20T09:01:48;5.93;;;3.10;;
61960;SDS011;47923;42.506;24.192;2023-08-20T09:04:14;6.43;;;3.00;;
61960;SDS011;47923;42.506;24.192;2023-08-20T09:06:46;4.35;;;3.20;;
61960;SDS011;47923;42.506;24.192;2023-08-20T09:09:12;4.40;;;2.63;;
61960;SDS011;47923;42.506;24.192;2023-08-20T09:11:38;5.75;;;2.88;;
61960;SDS011;47923;42.506;24.192;2023-08-20T09:14:04;4.00;;;2.70;;
61960;SDS011;47923;42.506;24.192;2023-08-20T09:16:30;4.82;;;2.78;;
61960;SDS011;47923;42.506;24.192;2023-08-20T09:18:57;5.30;;;2.92;;
61960;SDS011;47923;42.506;24.192;2023-08-20T09:21:26;4.38;;;2.83;;
61960;SDS011;47923;42.506;24.192;2023-08-20T09:24:00;6.35;;;3.42;;
61960;SDS011;47923;42.506;24.192;2023-08-20T09:26:27;5.82;;;2.97;;
61960;SDS011;47923;42.506;24.192;2023-08-20T09:28:54;4.47;;;3.08;;
61960;SDS011;47923;42.506;24.192;2023-08-20T09:31:22;9.23;;;3.50;;
61960;SDS011;47923;42.506;24.192;2023-08-20T09:34:04;4.70;;;3.20;;
61960;SDS011;47923;42.506;24.192;2023-08-20T09:36:31;6.32;;;3.30;;
61960;SDS011;47923;42.506;24.192;2023-08-20T09:38:58;5.70;;;3.40;;
61960;SDS011;47923;42.506;24.192;2023-08-20T09:41:24;4.38;;;3.13;;
61960;SDS011;47923;42.506;24.192;2023-08-20T09:43:52;5.55;;;2.85;;
61960;SDS011;47923;42.506;24.192;2023-08-20T09:46:21;3.92;;;2.60;;
61960;SDS011;47923;42.506;24.192;2023-08-20T09:48:49;6.25;;;3.28;;
61960;SDS011;47923;42.506;24.192;2023-08-20T09:51:17;4.07;;;2.67;;
61960;SDS011;47923;42.506;24.192;2023-08-20T09:53:50;5.95;;;3.10;;
61960;SDS011;47923;42.506;24.192;2023-08-20T09:56:30;4.70;;;3.17;;
61960;SDS011;47923;42.506;24.192;2023-08-20T09:58:57;7.10;;;3.35;;
61960;SDS011;47923;42.506;24.192;2023-08-20T10:01:24;5.70;;;2.95;;
61960;SDS011;47923;42.506;24.192;2023-08-20T10:03:50;6.25;;;3.30;;
61960;SDS011;47923;42.506;24.192;2023-08-20T10:06:16;5.30;;;3.00;;
61960;SDS011;47923;42.506;24.192;2023-08-20T10:08:43;5.25;;;3.17;;
61960;SDS011;47923;42.506;24.192;2023-08-20T10:11:11;5.60;;;3.22;;
61960;SDS011;47923;42.506;24.192;2023-08-20T10:13:37;5.70;;;3.08;;
61960;SDS011;47923;42.506;24.192;2023-08-20T10:16:02;4.90;;;2.75;;
61960;SDS011;47923;42.506;24.192;2023-08-20T10:18:28;4.05;;;2.70;;
61960;SDS011;47923;42.506;24.192;2023-08-20T10:20:54;6.03;;;2.70;;
61960;SDS011;47923;42.506;24.192;2023-08-20T10:23:23;3.45;;;2.40;;
61960;SDS011;47923;42.506;24.192;2023-08-20T10:25:48;6.10;;;2.65;;
61960;SDS011;47923;42.506;24.192;2023-08-20T10:28:26;3.92;;;2.90;;
61960;SDS011;47923;42.506;24.192;2023-08-20T10:31:02;5.60;;;2.85;;
61960;SDS011;47923;42.506;24.192;2023-08-20T10:33:36;4.20;;;2.42;;
61960;SDS011;47923;42.506;24.192;2023-08-20T10:36:22;3.20;;;2.55;;
61960;SDS011;47923;42.506;24.192;2023-08-20T10:38:53;7.18;;;3.03;;
61960;SDS011;47923;42.506;24.192;2023-08-20T10:41:26;6.45;;;2.97;;
61960;SDS011;47923;42.506;24.192;2023-08-20T10:43:53;5.97;;;2.80;;
61960;SDS011;47923;42.506;24.192;2023-08-20T10:46:23;5.85;;;3.03;;
61960;SDS011;47923;42.506;24.192;2023-08-20T10:48:51;5.00;;;3.00;;
61960;SDS011;47923;42.506;24.192;2023-08-20T10:56:24;4.75;;;3.17;;
61960;SDS011;47923;42.506;24.192;2023-08-20T11:01:47;5.35;;;3.33;;
61960;SDS011;47923;42.506;24.192;2023-08-20T11:04:17;4.88;;;3.35;;
61960;SDS011;47923;42.506;24.192;2023-08-20T11:06:45;6.68;;;3.42;;
61960;SDS011;47923;42.506;24.192;2023-08-20T11:09:12;4.60;;;3.15;;
61960;SDS011;47923;42.506;24.192;2023-08-20T11:11:38;6.38;;;3.30;;
61960;SDS011;47923;42.506;24.192;2023-08-20T11:14:08;5.63;;;3.42;;
61960;SDS011;47923;42.506;24.192;2023-08-20T11:16:38;7.78;;;3.78;;
61960;SDS011;47923;42.506;24.192;2023-08-20T11:19:04;4.88;;;3.50;;
61960;SDS011;47923;42.506;24.192;2023-08-20T11:21:33;5.82;;;3.30;;
61960;SDS011;47923;42.506;24.192;2023-08-20T11:24:00;5.00;;;3.30;;
61960;SDS011;47923;42.506;24.192;2023-08-20T11:26:26;7.70;;;3.28;;
61960;SDS011;47923;42.506;24.192;2023-08-20T11:28:51;7.95;;;3.53;;
61960;SDS011;47923;42.506;24.192;2023-08-20T11:31:17;5.63;;;3.58;;
61960;SDS011;47923;42.506;24.192;2023-08-20T11:33:42;6.18;;;3.50;;
61960;SDS011;47923;42.506;24.192;2023-08-20T11:36:08;6.93;;;3.63;;
61960;SDS011;47923;42.506;24.192;2023-08-20T11:38:33;6.40;;;3.70;;
61960;SDS011;47923;42.506;24.192;2023-08-20T11:40:59;5.05;;;3.10;;
61960;SDS011;47923;42.506;24.192;2023-08-20T11:43:30;6.63;;;3.50;;
61960;SDS011;47923;42.506;24.192;2023-08-20T11:45:55;5.82;;;3.58;;
61960;SDS011;47923;42.506;24.192;2023-08-20T11:48:21;7.00;;;3.38;;
61960;SDS011;47923;42.506;24.192;2023-08-20T11:50:47;7.25;;;3.10;;
61960;SDS011;47923;42.506;24.192;2023-08-20T11:53:14;6.60;;;3.88;;
61960;SDS011;47923;42.506;24.192;2023-08-20T11:55:40;6.95;;;3.22;;
61960;SDS011;47923;42.506;24.192;2023-08-20T11:58:11;5.72;;;3.42;;
61960;SDS011;47923;42.506;24.192;2023-08-20T12:00:37;5.60;;;3.63;;
61960;SDS011;47923;42.506;24.192;2023-08-20T12:03:03;4.70;;;3.30;;
61960;SDS011;47923;42.506;24.192;2023-08-20T12:05:30;6.28;;;3.10;;
61960;SDS011;47923;42.506;24.192;2023-08-20T12:07:59;5.47;;;3.65;;
61960;SDS011;47923;42.506;24.192;2023-08-20T12:10:28;6.07;;;3.65;;
61960;SDS011;47923;42.506;24.192;2023-08-20T12:12:55;5.88;;;3.55;;
61960;SDS011;47923;42.506;24.192;2023-08-20T12:15:21;5.30;;;3.50;;
61960;SDS011;47923;42.506;24.192;2023-08-20T12:20:23;6.35;;;3.53;;
61960;SDS011;47923;42.506;24.192;2023-08-20T12:22:51;7.18;;;3.70;;
61960;SDS011;47923;42.506;24.192;2023-08-20T12:25:17;6.25;;;3.60;;
61960;SDS011;47923;42.506;24.192;2023-08-20T12:27:42;5.82;;;3.50;;
61960;SDS011;47923;42.506;24.192;2023-08-20T12:30:08;6.00;;;3.42;;
61960;SDS011;47923;42.506;24.192;2023-08-20T12:32:33;7.85;;;3.95;;
61960;SDS011;47923;42.506;24.192;2023-08-20T12:34:59;6.28;;;3.13;;
61960;SDS011;47923;42.506;24.192;2023-08-20T12:37:24;7.53;;;4.00;;
61960;SDS011;47923;42.506;24.192;2023-08-20T12:39:50;7.05;;;3.72;;
61960;SDS011;47923;42.506;24.192;2023-08-20T12:42:15;7.07;;;3.13;;
61960;SDS011;47923;42.506;24.192;2023-08-20T12:44:41;8.25;;;3.50;;
61960;SDS011;47923;42.506;24.192;2023-08-20T12:47:06;5.60;;;3.17;;
61960;SDS011;47923;42.506;24.192;2023-08-20T12:49:32;7.45;;;3.40;;
61960;SDS011;47923;42.506;24.192;2023-08-20T12:51:57;5.82;;;3.38;;
61960;SDS011;47923;42.506;24.192;2023-08-20T12:54:22;5.85;;;3.40;;
61960;SDS011;47923;42.506;24.192;2023-08-20T12:56:48;7.25;;;3.25;;
61960;SDS011;47923;42.506;24.192;2023-08-20T12:59:13;7.85;;;3.65;;
61960;SDS011;47923;42.506;24.192;2023-08-20T13:01:39;6.85;;;3.45;;
61960;SDS011;47923;42.506;24.192;2023-08-20T13:04:04;8.57;;;3.58;;
61960;SDS011;47923;42.506;24.192;2023-08-20T13:06:30;4.93;;;3.42;;
61960;SDS011;47923;42.506;24.192;2023-08-20T13:08:56;7.30;;;3.42;;
61960;SDS011;47923;42.506;24.192;2023-08-20T13:11:21;6.07;;;3.50;;
61960;SDS011;47923;42.506;24.192;2023-08-20T13:13:50;6.65;;;3.42;;
61960;SDS011;47923;42.506;24.192;2023-08-20T13:16:18;6.00;;;3.72;;
61960;SDS011;47923;42.506;24.192;2023-08-20T13:18:44;6.00;;;3.22;;
61960;SDS011;47923;42.506;24.192;2023-08-20T13:21:10;6.47;;;3.42;;
61960;SDS011;47923;42.506;24.192;2023-08-20T13:23:36;8.55;;;3.40;;
61960;SDS011;47923;42.506;24.192;2023-08-20T13:26:01;6.32;;;3.38;;
61960;SDS011;47923;42.506;24.192;2023-08-20T13:28:27;9.75;;;3.53;;
61960;SDS011;47923;42.506;24.192;2023-08-20T13:30:52;4.97;;;3.05;;
61960;SDS011;47923;42.506;24.192;2023-08-20T13:33:18;5.15;;;3.20;;
61960;SDS011;47923;42.506;24.192;2023-08-20T13:35:43;5.32;;;3.50;;
61960;SDS011;47923;42.506;24.192;2023-08-20T13:38:09;9.65;;;3.47;;
61960;SDS011;47923;42.506;24.192;2023-08-20T13:40:34;5.93;;;3.60;;
61960;SDS011;47923;42.506;24.192;2023-08-20T13:43:00;6.25;;;3.20;;
61960;SDS011;47923;42.506;24.192;2023-08-20T13:45:25;5.90;;;3.47;;
61960;SDS011;47923;42.506;24.192;2023-08-20T13:47:51;5.75;;;3.30;;
61960;SDS011;47923;42.506;24.192;2023-08-20T13:50:16;5.60;;;3.30;;
61960;SDS011;47923;42.506;24.192;2023-08-20T13:52:41;6.85;;;3.40;;
61960;SDS011;47923;42.506;24.192;2023-08-20T13:55:07;4.80;;;3.05;;
61960;SDS011;47923;42.506;24.192;2023-08-20T13:57:33;6.72;;;3.70;;
61960;SDS011;47923;42.506;24.192;2023-08-20T13:59:58;6.78;;;3.65;;
61960;SDS011;47923;42.506;24.192;2023-08-20T14:02:24;8.13;;;3.80;;
61960;SDS011;47923;42.506;24.192;2023-08-20T14:04:49;7.40;;;3.50;;
61960;SDS011;47923;42.506;24.192;2023-08-20T14:07:14;6.70;;;3.58;;
61960;SDS011;47923;42.506;24.192;2023-08-20T14:09:40;6.70;;;3.53;;
61960;SDS011;47923;42.506;24.192;2023-08-20T14:12:06;6.07;;;3.40;;
61960;SDS011;47923;42.506;24.192;2023-08-20T14:14:32;6.75;;;3.67;;
61960;SDS011;47923;42.506;24.192;2023-08-20T14:16:58;8.18;;;3.65;;
61960;SDS011;47923;42.506;24.192;2023-08-20T14:19:23;5.47;;;3.58;;
61960;SDS011;47923;42.506;24.192;2023-08-20T14:21:48;6.13;;;3.08;;
61960;SDS011;47923;42.506;24.192;2023-08-20T14:24:14;5.95;;;3.00;;
61960;SDS011;47923;42.506;24.192;2023-08-20T14:26:39;6.13;;;3.55;;
61960;SDS011;47923;42.506;24.192;2023-08-20T14:29:05;6.45;;;3.22;;
61960;SDS011;47923;42.506;24.192;2023-08-20T14:31:30;7.72;;;3.47;;
61960;SDS011;47923;42.506;24.192;2023-08-20T14:33:56;8.57;;;3.50;;
61960;SDS011;47923;42.506;24.192;2023-08-20T14:36:22;7.00;;;3.35;;
61960;SDS011;47923;42.506;24.192;2023-08-20T14:38:47;8.10;;;3.85;;
61960;SDS011;47923;42.506;24.192;2023-08-20T14:41:12;5.70;;;3.55;;